Overcast Current Weather (METAR) For London Heathrow Airport

All times on the weather descriptions are local

Observed at 01:50 - (33 mins ago)

Overcast

8°C

Overcast
Clouds: Overcast at 3,100ft
Wind: 250° at 08 knots
Visibility: Greater than 10km
QNH: 1037
Dew Point: 2°C
Runway in Use: Landing: Runway , Take-Off: Runway

Sunrise Today: 06:33
Sunset Today: 17:52

Forecast Weather (TAF) For London Heathrow Airport

Issued at 00:00 - (25 days ago)


Runway in Use: Likely Runways 27L/R

Forecast valid until 00:00 on Tuesday

METAR/TAF RAW METAR / TAF

EGLL 060150Z AUTO 25008KT 9999 OVC031 08/02 Q1037

Weather Widget

Put weather from any of our airports on your website with our weather widget.

Find Another Search

Airport Search


Please Wait Please Wait - Loading
Close
Close

Login

Username:

Password:

Remember Me:

Remember me on this computer

Forgotten your password? Get a reset password sent to your registered e-mail address

Close

User Private Message

Subject:

Message: